Time;durP1;ratioP1;P1;durP2;ratioP2;P2;SDS_P1;SDS_P2;PMS_P1;PMS_P2;Temp;Humidity;BMP_temperature;BMP_pressure;BME280_temperature;BME280_humidity;BME280_pressure;Samples;Min_cycle;Max_cycle;Signal;HPM_P1;HPM_P2
2021/08/28 00:02:23;;;;;;;;;3.50;2.50;;;;;22.68;41.97;101622.72;5058469;28;45391;-44
2021/08/28 00:04:49;;;;;;;;;3.00;3.00;;;;;22.70;42.01;101627.00;5040689;28;45376;-47
2021/08/28 00:07:15;;;;;;;;;2.00;2.00;;;;;22.69;41.75;101630.56;5059139;28;45303;-45
2021/08/28 00:09:40;;;;;;;;;2.50;2.50;;;;;22.69;41.68;101630.56;5058370;28;46524;-47
2021/08/28 00:12:06;;;;;;;;;3.25;2.75;;;;;22.70;42.17;101636.69;5058467;28;45323;-47
2021/08/28 00:14:31;;;;;;;;;3.25;2.50;;;;;22.69;42.17;101630.56;5058394;28;45724;-46
2021/08/28 00:16:57;;;;;;;;;5.00;3.75;;;;;22.70;42.27;101636.69;5058759;28;45382;-48
2021/08/28 00:19:22;;;;;;;;;3.00;3.00;;;;;22.69;42.08;101625.28;5058128;28;46241;-45
2021/08/28 00:21:47;;;;;;;;;4.00;3.00;;;;;22.69;42.09;101625.28;5057995;28;50131;-47
2021/08/28 00:24:13;;;;;;;;;1.75;1.75;;;;;22.68;41.98;101617.44;5058750;28;45299;-45
2021/08/28 00:26:39;;;;;;;;;2.75;2.00;;;;;22.68;42.11;101622.72;5058550;28;45243;-45
2021/08/28 00:29:05;;;;;;;;;2.25;1.75;;;;;22.67;42.10;101611.31;5058079;28;46482;-46
2021/08/28 00:31:30;;;;;;;;;2.75;2.75;;;;;22.68;42.24;101620.06;5058204;28;45381;-47
2021/08/28 00:33:56;;;;;;;;;2.25;2.25;;;;;22.68;42.17;101620.94;5058429;28;45454;-47
2021/08/28 00:36:21;;;;;;;;;3.00;3.00;;;;;22.68;42.22;101628.00;5058397;28;45375;-48
2021/08/28 00:38:48;;;;;;;;;4.75;3.00;;;;;22.66;41.93;101621.94;5058210;28;45473;-48
2021/08/28 00:41:13;;;;;;;;;4.00;2.00;;;;;22.64;42.52;101627.31;5058249;28;45780;-47
2021/08/28 00:43:39;;;;;;;;;3.25;3.25;;;;;22.64;42.49;101626.47;5058132;28;45435;-46
2021/08/28 00:46:04;;;;;;;;;3.50;2.00;;;;;22.64;42.62;101629.09;5058386;28;45348;-45
2021/08/28 00:48:29;;;;;;;;;1.25;1.25;;;;;22.63;42.55;101630.03;5057835;28;45338;-48
2021/08/28 00:50:55;;;;;;;;;3.25;3.25;;;;;22.59;42.44;101629.34;5057988;28;45288;-46
2021/08/28 00:53:20;;;;;;;;;2.00;2.00;;;;;22.63;42.51;101632.69;5058065;28;45300;-44
2021/08/28 00:55:47;;;;;;;;;1.00;1.00;;;;;22.63;42.50;101630.03;5058492;28;45233;-46
2021/08/28 00:58:13;;;;;;;;;2.75;2.50;;;;;22.63;42.55;101635.31;5057703;28;45548;-44
2021/08/28 01:00:45;;;;;;;;;3.75;2.75;;;;;22.63;42.65;101627.41;5057540;28;45276;-45
2021/08/28 01:03:12;;;;;;;;;2.75;1.75;;;;;22.62;42.79;101623.03;5057923;28;45370;-47
2021/08/28 01:05:48;;;;;;;;;1.50;1.50;;;;;22.62;42.85;101626.53;5058041;28;45174;-44
2021/08/28 01:08:24;;;;;;;;;2.25;2.00;;;;;22.62;42.33;101623.88;5038762;28;46341;-46
2021/08/28 01:11:03;;;;;;;;;4.00;3.00;;;;;22.61;43.00;101627.44;5057573;28;45898;-46
2021/08/28 01:13:33;;;;;;;;;2.00;1.25;;;;;22.61;42.98;101618.69;5057848;28;45338;-43
2021/08/28 01:16:00;;;;;;;;;4.25;2.25;;;;;22.61;42.70;101619.53;5057809;28;45538;-44
2021/08/28 01:18:26;;;;;;;;;7.00;1.50;;;;;22.61;42.86;101616.03;5057172;28;45594;-46
2021/08/28 01:21:03;;;;;;;;;2.75;2.00;;;;;22.60;42.74;101614.34;5055935;28;45728;-44
2021/08/28 01:23:31;;;;;;;;;3.25;1.75;;;;;22.61;42.68;101618.69;5057558;28;45472;-46
2021/08/28 01:26:02;;;;;;;;;2.00;2.00;;;;;22.59;42.86;101621.41;5057822;28;45381;-50
2021/08/28 01:28:29;;;;;;;;;2.00;2.00;;;;;22.59;42.93;101618.78;5057377;28;45450;-47
2021/08/28 01:30:55;;;;;;;;;3.50;2.50;;;;;22.59;42.97;101613.50;5057386;28;45459;-47
2021/08/28 01:33:21;;;;;;;;;4.75;2.50;;;;;22.60;43.03;101609.06;5057385;28;45379;-46
2021/08/28 01:35:48;;;;;;;;;3.50;1.75;;;;;22.60;42.93;101611.69;5057888;28;45257;-46
2021/08/28 01:38:14;;;;;;;;;2.75;2.75;;;;;22.59;43.00;101609.97;5056976;28;46256;-48
2021/08/28 01:40:41;;;;;;;;;3.75;2.50;;;;;22.60;43.26;101609.06;5057142;28;45255;-44
2021/08/28 01:43:07;;;;;;;;;1.50;1.50;;;;;22.59;43.05;101613.50;5057246;28;45320;-46
2021/08/28 01:45:33;;;;;;;;;2.25;1.25;;;;;22.58;42.84;101609.16;5057379;28;45382;-44
2021/08/28 01:48:01;;;;;;;;;3.00;2.25;;;;;22.57;43.01;101604.78;5056787;28;45459;-46
2021/08/28 01:50:27;;;;;;;;;3.00;2.25;;;;;22.58;43.20;101614.44;5056949;28;45186;-44
2021/08/28 01:52:52;;;;;;;;;4.00;2.00;;;;;22.56;42.91;101605.72;5057066;28;45344;-45
2021/08/28 01:55:18;;;;;;;;;3.00;2.00;;;;;22.58;43.15;101608.28;5057461;28;45534;-46
2021/08/28 01:57:44;;;;;;;;;2.75;2.50;;;;;22.57;43.07;101606.56;5056790;28;46084;-45
2021/08/28 02:00:10;;;;;;;;;4.50;2.00;;;;;22.55;43.15;101612.78;5056537;28;45298;-47
2021/08/28 02:02:35;;;;;;;;;2.25;1.25;;;;;22.57;43.06;101614.47;5056901;28;45457;-47
2021/08/28 02:05:02;;;;;;;;;3.00;2.75;;;;;22.57;43.33;101619.78;5056985;28;45520;-46
2021/08/28 02:07:43;;;;;;;;;2.50;2.50;;;;;22.57;43.13;101619.78;5056771;28;46876;-46
2021/08/28 02:10:17;;;;;;;;;2.00;2.00;;;;;22.54;43.21;101608.41;5056491;28;45759;-45
2021/08/28 02:12:43;;;;;;;;;2.75;2.75;;;;;;;;5056761;28;45300;-45
2021/08/28 02:15:31;;;;;;;;;2.50;2.50;;;;;22.53;43.27;101613.78;5056914;28;45217;-43
2021/08/28 02:18:19;;;;;;;;;3.75;2.25;;;;;22.54;43.39;101620.78;5056377;28;45436;-45
2021/08/28 02:20:50;;;;;;;;;1.50;1.00;;;;;22.53;43.28;101619.09;5055493;28;45743;-44
2021/08/28 02:23:26;;;;;;;;;4.50;3.25;;;;;22.52;43.22;101617.38;5056554;28;45294;-45
2021/08/28 02:26:11;;;;;;;;;2.75;2.75;;;;;22.52;43.08;101623.53;5057179;28;45390;-47
2021/08/28 02:28:47;;;;;;;;;2.50;2.00;;;;;22.51;43.55;101618.31;5056309;28;45478;-45
2021/08/28 02:31:12;;;;;;;;;2.00;2.00;;;;;22.52;43.20;101620.88;5056402;28;45702;-45
2021/08/28 02:33:40;;;;;;;;;2.50;1.50;;;;;22.52;43.44;101618.25;5056507;28;45351;-44
2021/08/28 02:36:08;;;;;;;;;1.75;1.75;;;;;22.52;43.41;101623.53;5056478;28;45419;-45
2021/08/28 02:38:35;;;;;;;;;5.50;3.00;;;;;22.51;43.40;101620.94;5056175;28;45493;-48
2021/08/28 02:41:03;;;;;;;;;2.75;1.50;;;;;22.53;43.56;101625.22;5056200;28;45821;-47
2021/08/28 02:43:29;;;;;;;;;3.00;2.00;;;;;22.52;43.49;101628.81;5056373;28;45511;-45
2021/08/28 02:45:56;;;;;;;;;3.00;3.00;;;;;22.53;43.28;101624.38;5038556;28;45445;-46
2021/08/28 02:48:24;;;;;;;;;2.00;2.00;;;;;22.53;43.43;101619.09;5056359;28;45436;-46
2021/08/28 02:50:52;;;;;;;;;3.50;1.50;;;;;22.52;43.39;101620.88;5056184;28;45213;-46
2021/08/28 02:53:20;;;;;;;;;6.00;3.50;;;;;22.53;43.55;101619.09;5056296;28;45466;-44
2021/08/28 02:55:48;;;;;;;;;3.50;2.00;;;;;22.52;43.43;101612.97;5056506;28;45558;-46
2021/08/28 02:58:15;;;;;;;;;1.00;1.00;;;;;22.53;43.39;101614.66;5054688;28;47641;-46
2021/08/28 03:00:42;;;;;;;;;2.75;1.75;;;;;22.53;43.38;101613.78;5055737;28;45244;-46
2021/08/28 03:03:11;;;;;;;;;2.00;2.00;;;;;22.52;43.21;101615.59;5055968;28;45269;-47
2021/08/28 03:05:38;;;;;;;;;2.75;2.75;;;;;22.51;43.81;101613.88;5056256;28;45380;-46
2021/08/28 03:08:04;;;;;;;;;4.00;2.25;;;;;22.51;43.51;101610.38;5055722;28;47029;-46
2021/08/28 03:10:30;;;;;;;;;3.00;1.75;;;;;22.53;43.53;101608.50;5055840;28;45208;-47
2021/08/28 03:12:55;;;;;;;;;1.75;1.75;;;;;22.52;43.70;101607.66;5056152;28;45356;-47
2021/08/28 03:15:21;;;;;;;;;3.00;3.00;;;;;22.52;43.53;101612.97;5056510;28;45390;-51
2021/08/28 03:17:46;;;;;;;;;2.00;2.00;;;;;22.50;43.84;101598.97;5055655;28;46083;-48
2021/08/28 03:20:14;;;;;;;;;1.00;1.00;;;;;22.52;43.56;101612.09;5055618;28;45343;-45
2021/08/28 03:22:42;;;;;;;;;3.00;3.00;;;;;22.52;43.47;101607.66;5055877;28;45505;-47
2021/08/28 03:25:10;;;;;;;;;2.25;2.25;;;;;22.53;43.88;101616.44;5056044;28;45414;-47
2021/08/28 03:27:38;;;;;;;;;2.25;2.00;;;;;22.52;43.67;101612.09;5055412;28;47766;-48
2021/08/28 03:30:07;;;;;;;;;2.00;2.00;;;;;22.51;43.97;101608.59;5055612;28;45304;-47
2021/08/28 03:32:34;;;;;;;;;4.25;3.25;;;;;22.50;43.70;101617.47;5059143;28;45345;-47
2021/08/28 03:35:00;;;;;;;;;2.00;1.00;;;;;22.50;43.84;101609.53;5058093;28;45358;-48
2021/08/28 03:37:25;;;;;;;;;5.00;1.50;;;;;22.49;43.74;101613.09;5059331;28;45567;-46
2021/08/28 03:39:51;;;;;;;;;3.75;3.75;;;;;22.50;43.57;101609.53;5058928;28;45317;-46
2021/08/28 03:42:17;;;;;;;;;1.75;1.75;;;;;22.51;43.53;101607.72;5059035;28;45364;-46
2021/08/28 03:44:42;;;;;;;;;2.75;2.00;;;;;22.50;43.58;101603.38;5041250;28;45314;-45
2021/08/28 03:47:08;;;;;;;;;2.00;2.00;;;;;22.49;43.89;101602.53;5058634;28;46243;-46
2021/08/28 03:49:34;;;;;;;;;4.00;1.75;;;;;22.48;43.97;101600.81;5058866;28;45406;-47
2021/08/28 03:52:00;;;;;;;;;4.00;2.75;;;;;22.46;43.66;101605.31;5058940;28;45360;-46
2021/08/28 03:54:25;;;;;;;;;3.25;3.00;;;;;22.47;43.63;101609.69;5059561;28;45553;-47
2021/08/28 03:56:51;;;;;;;;;3.00;1.75;;;;;22.47;43.96;101604.41;5058869;28;45588;-47
2021/08/28 03:59:16;;;;;;;;;2.00;2.00;;;;;22.47;43.85;101596.47;5058279;28;49327;-48
2021/08/28 04:01:41;;;;;;;;;2.00;2.00;;;;;22.46;43.91;101596.56;5058573;28;45331;-47
2021/08/28 04:04:06;;;;;;;;;2.25;2.25;;;;;22.46;43.83;101599.22;5058889;28;45237;-46
2021/08/28 04:06:32;;;;;;;;;2.75;2.75;;;;;22.46;43.79;101601.84;5058344;28;45331;-49
2021/08/28 04:08:57;;;;;;;;;6.00;2.75;;;;;22.45;43.86;101611.53;5058838;28;45272;-47
2021/08/28 04:11:22;;;;;;;;;2.75;2.00;;;;;22.46;43.95;101607.13;5058788;28;45348;-47
2021/08/28 04:13:48;;;;;;;;;2.00;2.00;;;;;22.45;43.93;101600.97;5058837;28;45268;-45
2021/08/28 04:16:13;;;;;;;;;2.50;2.50;;;;;22.44;43.98;101593.13;5058212;28;46073;-49
2021/08/28 04:18:38;;;;;;;;;3.25;3.00;;;;;22.45;43.80;101608.06;5058328;28;45455;-50
2021/08/28 04:21:04;;;;;;;;;3.50;2.00;;;;;22.46;43.65;101604.50;5058530;28;45191;-50
2021/08/28 04:23:29;;;;;;;;;1.75;1.75;;;;;22.45;43.83;101615.97;5058628;28;45573;-46
2021/08/28 04:25:54;;;;;;;;;2.25;2.25;;;;;22.43;44.17;101602.88;5058496;28;45376;-45
2021/08/28 04:28:20;;;;;;;;;4.50;3.50;;;;;22.45;44.09;101611.53;5058242;28;45254;-45
2021/08/28 04:30:45;;;;;;;;;2.00;2.00;;;;;22.45;43.78;101610.69;5058235;28;45442;-45
2021/08/28 04:33:11;;;;;;;;;1.75;1.75;;;;;22.44;43.87;101609.84;5058461;28;45248;-45
2021/08/28 04:35:37;;;;;;;;;2.00;1.25;;;;;22.46;44.08;101609.78;5040094;28;46496;-45
2021/08/28 04:38:02;;;;;;;;;5.00;2.25;;;;;22.45;43.94;101605.41;5057890;28;47521;-50
2021/08/28 04:40:28;;;;;;;;;3.75;3.75;;;;;22.45;43.90;101616.81;5058355;28;45320;-46
2021/08/28 04:42:53;;;;;;;;;2.00;2.00;;;;;22.44;43.90;101620.41;5057313;28;45416;-47
2021/08/28 04:45:19;;;;;;;;;3.25;3.25;;;;;22.45;43.86;101611.53;5057733;28;47038;-48
2021/08/28 04:47:45;;;;;;;;;3.00;3.00;;;;;22.44;43.66;101615.13;5057865;28;45937;-51
2021/08/28 04:50:11;;;;;;;;;2.50;2.50;;;;;22.45;43.93;101613.34;5058213;28;45308;-46
2021/08/28 04:52:36;;;;;;;;;4.00;1.50;;;;;22.45;44.10;101611.53;5058231;28;45543;-48
2021/08/28 04:55:02;;;;;;;;;2.75;2.00;;;;;22.44;43.86;101609.84;5057719;28;45539;-50
2021/08/28 04:57:27;;;;;;;;;1.00;1.00;;;;;22.44;43.83;101615.13;5058227;28;45360;-44
2021/08/28 04:59:52;;;;;;;;;2.50;2.00;;;;;22.44;44.19;101609.00;5057639;28;45300;-46
2021/08/28 05:02:18;;;;;;;;;5.50;3.25;;;;;22.44;43.71;101619.56;5056645;28;45411;-49
2021/08/28 05:04:43;;;;;;;;;4.00;2.00;;;;;22.43;43.92;101618.72;5057617;28;46656;-49
2021/08/28 05:07:08;;;;;;;;;3.00;3.00;;;;;22.42;43.91;101617.00;5057660;28;45175;-47
2021/08/28 05:09:34;;;;;;;;;4.25;2.75;;;;;22.43;43.88;101623.13;5057732;28;45221;-50
2021/08/28 05:11:59;;;;;;;;;5.75;2.25;;;;;22.43;43.80;101624.00;5058351;28;45265;-47
2021/08/28 05:14:24;;;;;;;;;4.75;1.75;;;;;22.42;44.20;101622.28;5056143;28;46328;-46
2021/08/28 05:16:50;;;;;;;;;2.50;2.00;;;;;22.43;44.30;101623.13;5057473;28;45252;-49
2021/08/28 05:19:15;;;;;;;;;4.00;2.75;;;;;22.41;44.05;101623.22;5057669;28;45274;-45
2021/08/28 05:21:40;;;;;;;;;6.25;3.00;;;;;22.41;43.93;101631.16;5057599;28;45216;-47
2021/08/28 05:24:06;;;;;;;;;4.00;2.75;;;;;22.42;44.21;101626.69;5057191;28;47152;-49
2021/08/28 05:26:31;;;;;;;;;3.00;2.75;;;;;22.39;44.34;101617.97;5039508;28;45376;-49
2021/08/28 05:28:56;;;;;;;;;3.25;2.00;;;;;22.39;44.09;101625.03;5057462;28;45312;-49
2021/08/28 05:31:22;;;;;;;;;6.50;2.75;;;;;22.39;44.35;101631.16;5057646;28;45840;-47
2021/08/28 05:33:47;;;;;;;;;4.75;3.00;;;;;22.39;44.14;101625.03;5057176;28;46488;-45
2021/08/28 05:36:12;;;;;;;;;3.00;3.00;;;;;22.38;44.52;101624.16;5039138;28;45467;-46
2021/08/28 05:38:38;;;;;;;;;2.00;2.00;;;;;22.39;44.54;101638.25;5057171;28;45394;-44
2021/08/28 05:41:03;;;;;;;;;2.75;2.75;;;;;22.38;44.54;101631.25;5057303;28;45408;-46
2021/08/28 05:43:29;;;;;;;;;3.75;3.75;;;;;22.36;44.83;101617.25;5057241;28;46867;-47
2021/08/28 05:45:57;;;;;;;;;3.25;3.00;;;;;22.36;44.83;101627.84;5057006;28;45362;-47
2021/08/28 05:48:23;;;;;;;;;2.50;2.50;;;;;22.36;44.47;101638.41;5057117;28;45359;-45
2021/08/28 05:50:48;;;;;;;;;4.00;2.00;;;;;22.35;44.57;101626.13;5057293;28;45475;-46
2021/08/28 05:53:14;;;;;;;;;3.25;3.00;;;;;22.34;44.64;101637.63;5056844;28;45548;-48
2021/08/28 05:55:39;;;;;;;;;2.25;2.25;;;;;22.36;44.70;101627.84;5056961;28;45224;-48
2021/08/28 05:58:04;;;;;;;;;4.75;3.00;;;;;22.36;44.92;101618.13;5057002;28;45445;-46
2021/08/28 06:00:30;;;;;;;;;6.00;4.00;;;;;22.36;44.71;101625.19;5057030;28;45292;-47
2021/08/28 06:02:55;;;;;;;;;5.50;4.50;;;;;22.36;45.10;101635.75;5056742;28;45293;-46
2021/08/28 06:05:20;;;;;;;;;5.50;3.50;;;;;22.37;44.86;101634.81;5056698;28;45332;-46
2021/08/28 06:07:46;;;;;;;;;3.00;2.50;;;;;22.37;44.54;101626.91;5056728;28;45671;-48
2021/08/28 06:10:11;;;;;;;;;4.25;2.25;;;;;22.37;44.77;101645.38;5056983;28;45443;-48
2021/08/28 06:12:36;;;;;;;;;4.00;2.50;;;;;22.36;44.54;101633.13;5056560;28;46161;-48
2021/08/28 06:15:05;;;;;;;;;5.75;2.75;;;;;22.37;44.76;101629.53;5056794;28;45456;-47
2021/08/28 06:17:30;;;;;;;;;2.75;2.75;;;;;22.36;44.82;101638.41;5057060;28;45379;-46
2021/08/28 06:19:56;;;;;;;;;2.00;2.00;;;;;22.36;44.66;101643.69;5056830;28;45497;-46
2021/08/28 06:22:21;;;;;;;;;5.00;3.25;;;;;22.36;44.55;101639.28;5056253;28;46141;-47
2021/08/28 06:24:46;;;;;;;;;3.00;3.00;;;;;22.37;44.82;101642.75;5038502;28;45288;-46
2021/08/28 06:27:12;;;;;;;;;2.75;2.75;;;;;22.35;44.38;101639.31;5056738;28;45264;-46
2021/08/28 06:29:37;;;;;;;;;3.25;3.00;;;;;22.36;44.50;101641.03;5056714;28;45311;-46
2021/08/28 06:32:04;;;;;;;;;4.50;3.00;;;;;22.36;44.74;101649.84;5056444;28;45780;-47
2021/08/28 06:34:29;;;;;;;;;3.50;3.00;;;;;22.36;44.64;101644.56;5056214;28;45406;-44
2021/08/28 06:36:54;;;;;;;;;2.75;2.75;;;;;22.36;44.73;101638.41;5056523;28;45264;-47
2021/08/28 06:39:20;;;;;;;;;2.50;2.25;;;;;22.36;44.69;101646.31;5056515;28;45597;-50
2021/08/28 06:41:45;;;;;;;;;3.00;3.00;;;;;22.36;44.63;101641.03;5056211;28;46206;-46
2021/08/28 06:44:11;;;;;;;;;4.50;3.00;;;;;22.36;44.84;101644.56;5056297;28;45470;-46
2021/08/28 06:46:36;;;;;;;;;3.00;3.00;;;;;22.35;44.90;101648.13;5056377;28;45319;-50
2021/08/28 06:49:02;;;;;;;;;2.00;2.00;;;;;22.36;44.90;101648.97;5056735;28;45423;-49
2021/08/28 06:51:27;;;;;;;;;3.00;3.00;;;;;22.38;44.88;101645.31;5056071;28;46638;-47
2021/08/28 06:53:53;;;;;;;;;3.75;2.25;;;;;22.38;44.99;101644.47;5056176;28;45340;-49
2021/08/28 06:56:18;;;;;;;;;5.00;3.50;;;;;22.39;44.88;101654.09;5056331;28;45405;-49
2021/08/28 06:58:44;;;;;;;;;3.50;2.50;;;;;22.38;45.06;101647.09;5054834;28;45635;-47
2021/08/28 07:01:09;;;;;;;;;2.50;2.00;;;;;22.38;44.88;101647.09;5056052;28;46301;-46
2021/08/28 07:03:35;;;;;;;;;2.75;2.75;;;;;22.39;44.98;101654.09;5056332;28;45394;-47
2021/08/28 07:06:00;;;;;;;;;4.75;3.75;;;;;22.38;45.02;101650.59;5057289;28;45331;-47
2021/08/28 07:08:26;;;;;;;;;2.00;2.00;;;;;22.38;45.09;101653.22;5059815;28;45479;-48
2021/08/28 07:10:51;;;;;;;;;4.00;3.00;;;;;22.39;44.87;101654.09;5041288;28;47175;-46
2021/08/28 07:13:17;;;;;;;;;4.50;3.25;;;;;22.38;45.08;101655.03;5059371;28;45586;-47
2021/08/28 07:15:42;;;;;;;;;4.25;2.75;;;;;22.40;45.08;101653.16;5059727;28;45376;-45
2021/08/28 07:18:08;;;;;;;;;6.00;3.50;;;;;22.40;44.99;101658.44;5059702;28;45507;-48
2021/08/28 07:20:34;;;;;;;;;5.00;2.00;;;;;22.40;45.01;101653.16;5041491;28;47640;-47
2021/08/28 07:22:59;;;;;;;;;3.00;3.00;;;;;22.39;44.99;101662.88;5059399;28;45199;-47
2021/08/28 07:25:25;;;;;;;;;2.25;2.00;;;;;22.42;45.10;101661.91;5059356;28;45340;-48
2021/08/28 07:27:50;;;;;;;;;6.75;4.25;;;;;22.42;45.39;101653.09;5059436;28;45522;-48
2021/08/28 07:30:15;;;;;;;;;3.25;3.25;;;;;22.44;45.14;101652.09;5058882;28;46568;-47
2021/08/28 07:32:41;;;;;;;;;5.00;4.00;;;;;22.46;45.31;101647.59;5058893;28;45458;-47
2021/08/28 07:35:07;;;;;;;;;5.25;4.00;;;;;22.47;45.17;101657.22;5059529;28;45355;-47
2021/08/28 07:37:32;;;;;;;;;3.50;3.50;;;;;22.49;45.38;101651.88;5059423;28;45518;-47
2021/08/28 07:39:58;;;;;;;;;5.75;3.75;;;;;22.49;45.20;101650.09;5058850;28;46452;-48
2021/08/28 07:42:24;;;;;;;;;4.25;3.00;;;;;22.51;45.60;101656.16;5057666;28;45519;-46
2021/08/28 07:44:49;;;;;;;;;2.75;2.75;;;;;22.52;45.36;101649.94;5059081;28;45343;-46
2021/08/28 07:47:14;;;;;;;;;5.25;4.25;;;;;22.52;45.70;101643.78;5059199;28;45584;-47
2021/08/28 07:49:40;;;;;;;;;8.00;4.25;;;;;22.53;45.32;101650.78;5058956;28;46270;-50
2021/08/28 07:52:06;;;;;;;;;6.00;4.00;;;;;22.53;45.54;101649.00;5059064;28;45307;-49
2021/08/28 07:54:31;;;;;;;;;3.50;3.25;;;;;22.54;45.58;101650.69;5058961;28;45311;-46
2021/08/28 07:56:59;;;;;;;;;6.50;5.00;;;;;22.53;45.44;101641.09;5058996;28;45324;-45
2021/08/28 07:59:24;;;;;;;;;5.75;4.75;;;;;22.57;45.48;101652.34;5058481;28;46457;-48
2021/08/28 08:01:50;;;;;;;;;5.50;4.00;;;;;22.58;45.41;101645.25;5058513;28;45319;-46
2021/08/28 08:04:15;;;;;;;;;3.75;3.50;;;;;22.59;45.59;101650.47;5040694;28;45380;-48
2021/08/28 08:06:41;;;;;;;;;6.00;4.00;;;;;22.59;45.53;101649.63;5059182;28;45530;-45
2021/08/28 08:09:06;;;;;;;;;4.00;4.00;;;;;22.62;45.39;101646.81;5058854;28;46352;-47
2021/08/28 08:11:31;;;;;;;;;6.75;6.25;;;;;22.61;45.47;101647.75;5058329;28;45410;-47
2021/08/28 08:13:57;;;;;;;;;3.75;3.75;;;;;22.62;45.74;101652.94;5058530;28;45292;-45
2021/08/28 08:16:22;;;;;;;;;5.75;3.75;;;;;22.62;45.58;101650.31;5058434;28;45318;-49
2021/08/28 08:18:48;;;;;;;;;6.25;3.50;;;;;22.62;45.81;101657.38;5057285;28;46258;-45
2021/08/28 08:21:13;;;;;;;;;4.25;4.00;;;;;22.63;45.54;101659.09;5058363;28;45332;-47
2021/08/28 08:23:39;;;;;;;;;5.50;4.25;;;;;22.61;45.66;101659.16;5058444;28;45423;-47
2021/08/28 08:26:04;;;;;;;;;5.00;5.00;;;;;22.61;45.71;101663.59;5058584;28;45402;-45
2021/08/28 08:28:29;;;;;;;;;5.25;3.75;;;;;22.59;45.60;101666.34;5058088;28;46199;-44
2021/08/28 08:30:55;;;;;;;;;4.25;4.25;;;;;22.59;45.86;101665.47;5040119;28;45387;-45
2021/08/28 08:33:20;;;;;;;;;3.50;3.50;;;;;22.59;45.79;101660.19;5058259;28;45414;-45
2021/08/28 08:35:45;;;;;;;;;4.00;4.00;;;;;22.59;45.83;101649.63;5058391;28;45362;-47
2021/08/28 08:38:11;;;;;;;;;6.75;5.00;;;;;22.60;45.91;101646.03;5058410;28;46140;-46
2021/08/28 08:40:36;;;;;;;;;5.00;3.00;;;;;22.61;45.99;101647.75;5058018;28;45275;-47
2021/08/28 08:43:04;;;;;;;;;3.00;3.00;;;;;22.61;46.23;101645.94;5058162;28;45185;-45
2021/08/28 08:45:30;;;;;;;;;4.75;4.75;;;;;22.62;46.21;101650.31;5058451;28;45530;-49
2021/08/28 08:47:56;;;;;;;;;8.25;5.75;;;;;22.63;46.24;101648.53;5057978;28;47082;-46
2021/08/28 08:50:22;;;;;;;;;4.75;4.00;;;;;22.64;46.59;101652.88;5057890;28;45285;-46
2021/08/28 08:52:53;;;;;;;;;5.00;5.00;;;;;22.65;46.65;101654.59;5058105;28;45467;-46
2021/08/28 08:55:18;;;;;;;;;5.00;5.00;;;;;22.64;46.52;101658.16;5058140;28;45232;-46
2021/08/28 08:57:44;;;;;;;;;7.00;5.25;;;;;22.65;46.98;101657.25;5057674;28;47058;-45
2021/08/28 09:00:10;;;;;;;;;3.75;3.75;;;;;22.66;46.77;101656.28;5039873;28;45979;-45
2021/08/28 09:02:36;;;;;;;;;5.25;5.25;;;;;22.67;46.67;101652.72;5039788;28;45335;-48
2021/08/28 09:05:04;;;;;;;;;6.50;5.75;;;;;22.67;46.44;101660.63;5058082;28;45520;-49
2021/08/28 09:07:30;;;;;;;;;5.00;5.00;;;;;22.67;46.63;101655.34;5057529;28;45429;-46
2021/08/28 09:09:55;;;;;;;;;6.75;5.25;;;;;22.68;46.95;101655.28;5057423;28;45320;-47
2021/08/28 09:12:20;;;;;;;;;4.50;3.25;;;;;22.68;46.67;101662.34;5057711;28;45345;-47
2021/08/28 09:14:57;;;;;;;;;4.25;4.25;;;;;22.68;46.96;101665.00;5057918;28;45248;-48
2021/08/28 09:17:22;;;;;;;;;5.25;5.25;;;;;22.68;46.79;101657.06;5057644;28;46200;-46
2021/08/28 09:19:50;;;;;;;;;4.50;4.50;;;;;22.69;46.66;101661.41;5057370;28;45817;-47
2021/08/28 09:22:28;;;;;;;;;5.75;5.00;;;;;22.70;46.78;101663.13;5057487;28;45379;-45
2021/08/28 09:25:03;;;;;;;;;4.50;4.00;;;;;22.69;46.70;101662.28;5057616;28;45766;-44
2021/08/28 09:27:33;;;;;;;;;2.25;2.00;;;;;22.70;46.75;101665.78;5057425;28;45728;-45
2021/08/28 09:29:59;;;;;;;;;4.00;4.00;;;;;22.68;46.74;101659.69;5056854;28;45919;-47
2021/08/28 09:32:25;;;;;;;;;6.25;5.50;;;;;22.68;46.76;101668.50;5057439;28;45315;-46
2021/08/28 09:34:50;;;;;;;;;4.50;4.00;;;;;22.69;46.53;101674.63;5057379;28;45662;-46
2021/08/28 09:37:15;;;;;;;;;4.50;4.50;;;;;22.69;46.82;101671.97;5057133;28;45616;-46
2021/08/28 09:39:49;;;;;;;;;5.25;3.00;;;;;22.69;46.81;101679.91;5057467;28;45230;-47
2021/08/28 09:42:19;;;;;;;;;6.00;4.25;;;;;22.68;46.94;101671.16;5057491;28;45308;-48
2021/08/28 09:44:46;;;;;;;;;5.00;5.00;;;;;22.69;46.61;101672.84;5057711;28;45492;-45
2021/08/28 09:47:12;;;;;;;;;5.50;4.00;;;;;22.69;46.67;101664.06;5057222;28;45375;-45
2021/08/28 09:49:39;;;;;;;;;6.00;6.00;;;;;22.70;46.40;101664.00;5056899;28;45261;-45
2021/08/28 09:52:08;;;;;;;;;5.25;4.75;;;;;22.68;46.68;101657.94;5057116;28;45387;-47
2021/08/28 09:54:37;;;;;;;;;4.00;4.00;;;;;22.72;46.78;101674.47;5057283;28;45312;-44
2021/08/28 09:57:02;;;;;;;;;6.00;6.00;;;;;22.71;46.50;101664.84;5056858;28;46215;-45
2021/08/28 09:59:28;;;;;;;;;6.50;5.00;;;;;22.70;46.70;101673.69;5038853;28;45955;-46
2021/08/28 10:01:53;;;;;;;;;3.75;3.75;;;;;22.68;46.60;101667.63;5056856;28;45298;-42
2021/08/28 10:04:19;;;;;;;;;4.50;3.25;;;;;22.66;46.66;101662.44;5057107;28;45640;-45
2021/08/28 10:06:46;;;;;;;;;5.25;4.00;;;;;22.66;46.74;101661.56;5057049;28;46358;-48
2021/08/28 10:09:13;;;;;;;;;4.50;4.25;;;;;22.67;46.75;101661.50;5056701;28;45359;-44
2021/08/28 10:11:44;;;;;;;;;4.25;4.25;;;;;22.67;46.81;101664.16;5056721;28;45347;-49
2021/08/28 10:14:11;;;;;;;;;3.50;3.00;;;;;22.67;46.78;101663.28;5022364;28;45273;-47
2021/08/28 10:16:37;;;;;;;;;4.50;4.25;;;;;22.67;46.73;101663.28;5056606;28;45661;-47
2021/08/28 10:19:03;;;;;;;;;5.75;4.00;;;;;22.67;46.96;101652.72;5056696;28;45418;-46
2021/08/28 10:21:28;;;;;;;;;4.75;4.00;;;;;22.64;46.91;101651.09;5056626;28;45439;-46
2021/08/28 10:23:54;;;;;;;;;5.00;3.00;;;;;22.66;46.80;101657.16;5056786;28;45370;-45
2021/08/28 10:26:20;;;;;;;;;4.00;4.00;;;;;22.68;46.76;101651.78;5056460;28;46052;-44
2021/08/28 10:28:45;;;;;;;;;7.00;5.00;;;;;22.68;46.80;101654.41;5056663;28;45383;-45
2021/08/28 10:31:11;;;;;;;;;5.25;4.25;;;;;22.67;47.07;101652.72;5056513;28;45443;-44
2021/08/28 10:33:37;;;;;;;;;4.75;4.75;;;;;22.68;46.40;101660.56;5056738;28;45481;-45
2021/08/28 10:36:07;;;;;;;;;3.75;2.25;;;;;22.66;46.77;101656.28;5056226;28;46389;-48
2021/08/28 10:38:33;;;;;;;;;3.00;3.00;;;;;22.67;46.74;101658.00;5056315;28;45335;-44
2021/08/28 10:40:59;;;;;;;;;5.75;4.00;;;;;22.64;46.83;101651.09;5055384;28;45304;-49
2021/08/28 10:43:25;;;;;;;;;3.25;3.25;;;;;22.66;47.27;101657.16;5056447;28;45546;-46
2021/08/28 10:45:51;;;;;;;;;4.00;3.00;;;;;22.66;46.80;101661.56;5038320;28;45486;-46
2021/08/28 10:48:17;;;;;;;;;4.00;3.00;;;;;22.66;46.68;101651.00;5056495;28;45456;-46
2021/08/28 10:50:43;;;;;;;;;3.00;3.00;;;;;22.65;46.93;101650.16;5056528;28;45793;-45
2021/08/28 10:53:10;;;;;;;;;5.25;4.00;;;;;22.66;46.68;101651.00;5056690;28;45566;-45
2021/08/28 10:55:38;;;;;;;;;3.50;3.25;;;;;22.67;46.54;101644.78;5055922;28;46978;-46
2021/08/28 10:58:22;;;;;;;;;3.75;3.75;;;;;22.67;46.62;101647.41;5055940;28;45351;-50
2021/08/28 11:00:49;;;;;;;;;4.75;3.75;;;;;22.68;46.89;101651.78;5056301;28;45347;-49
2021/08/28 11:03:32;;;;;;;;;3.00;3.00;;;;;22.67;47.16;101642.13;5056553;28;45280;-45
2021/08/28 11:06:15;;;;;;;;;3.00;3.00;;;;;22.70;46.81;101649.91;5055926;28;45541;-46
2021/08/28 11:08:59;;;;;;;;;4.50;4.50;;;;;22.70;46.79;101649.91;5055777;28;45764;-46
2021/08/28 11:11:39;;;;;;;;;5.25;5.25;;;;;22.69;46.73;101642.91;5056112;28;45430;-46
2021/08/28 11:14:06;;;;;;;;;2.00;2.00;;;;;22.70;46.60;101650.78;5056045;28;45402;-46
2021/08/28 11:16:44;;;;;;;;;5.50;3.75;;;;;22.72;46.34;101642.78;5055742;28;45488;-48
2021/08/28 11:19:24;;;;;;;;;5.50;4.00;;;;;22.73;46.37;101647.13;5055721;28;45322;-46
2021/08/28 11:21:51;;;;;;;;;3.25;3.25;;;;;22.74;46.33;101637.38;5037912;28;45469;-46
2021/08/28 11:24:19;;;;;;;;;2.75;2.75;;;;;22.75;46.39;101645.25;5056250;28;45518;-46
2021/08/28 11:26:55;;;;;;;;;4.75;4.00;;;;;22.76;46.38;101641.69;5055848;28;45480;-46